Quick Links (Output Below):   Max & Min Temps   /   Climate Reports   /   Zone Forecasts
River Forecasts   /   Forestry Forecasts   /   Aviation Forecasts   /   Radars   /   Features

Terminal Aerodrome Forecast (Fort Smith)

Pick a Site:
Arkadelphia | El Dorado | Fayetteville | Fort Smith | Harrison | Highfill | Hot Springs | Jonesboro
Little Rock | Monticello | Mountain Home | Pine Bluff | Texarkana
 Forecast 

KFSM 280520Z 2806/2906 08004KT P6SM SCT250
     FM281500 08004KT P6SM VCTS BKN050CB
     FM281800 VRB03KT P6SM SCT050 BKN250 PROB30 2818/2824 5SM -TSRA
      BR BKN050CB
     FM290000 VRB06KT P6SM SCT050 BKN250 PROB30 2900/2906 4SM -TSRA
      BR BKN040CB=


 Latest METARs (Observations) 
How to Decode METARs
05Z KFSM 280453Z AUTO 00000KT 10SM CLR 22/19 A3007 RMK AO2 SLP176
         T02170189
         
04Z KFSM 280353Z AUTO 00000KT 10SM CLR 22/19 A3006 RMK AO2 SLP176
         T02170194
         
03Z KFSM 280253Z 00000KT 10SM CLR 23/20 A3005 RMK AO2 SLP171 T02330200
         53012
         
02Z KFSM 280153Z 00000KT 10SM CLR 24/19 A3003 RMK AO2 SLP164
         T02440189
         
01Z KFSM 280053Z 00000KT 10SM CLR 27/18 A3003 RMK AO2 SLP165
         T02670178
         
00Z KFSM 272353Z 30003KT 10SM CLR 28/18 A3002 RMK AO2 SLP160 T02780178
         10306 20278 56012
         
***** Today's Observations (Above) *****


23Z KFSM 272253Z 28009KT 10SM CLR 28/18 A3002 RMK AO2 SLP161
         T02830183
         
22Z KFSM 272153Z 31007KT 10SM CLR 29/18 A3004 RMK AO2 SLP166
         T02940178
         
21Z KFSM 272053Z 28010KT 10SM CLR 30/17 A3005 RMK AO2 SLP172 T03000167
         55009
         
20Z KFSM 271953Z 24006KT 10SM BKN044 30/18 A3005 RMK AO2 SLP171
         T03000183
         
***** Yesterday's Observations (Above) *****


Back to Main Page
http://www.srh.noaa.gov/lzk/qfcst.php

USA.gov is the U.S. government's official web portal to all federal, state and local government web resources and services.